MSC0712 EDDF-HESH
Flight info
| Callsign | MSC0712 |
|---|---|
| Flight time | N/A |
| Altitude | 35000 |
| Route | CINDY8S/18 CINDY Z74 LAMPU DCT NOMBO Y161 MAH DCT VAVOR DCT RADIZ DCT GIMIX DCT EPODO DCT RASTU DCT GLOMY DCT PETAK DCT DIMIS DCT IPTES UL604 SALUN N705 MMA P751 DASUM Y234 FYM M872 HGD R650 SHM |
| Aircraft | A320/M-SDE3FGHIRWY/LB1 |
Departure
| Time | 2026-05-04 14:48 |
|---|---|
| Airport | Frankfurt Main Airport (EDDF) |
Arrival
| Time | N/A |
|---|---|
| Airport | Sharm El Sheikh International Airport (HESH) |
| Time | Latitude | Longitude | Altitude | Speed | Heading |
|---|---|---|---|---|---|
| 2026-05-04 14:21 | 50.04923 | 8.58945 | 362 ft | 0 kts | 160° |
| 2026-05-04 14:32 | 50.04941 | 8.58935 | 364 ft | 4 kts | 160° |
| 2026-05-04 14:32 | 50.04962 | 8.58923 | 363 ft | 3 kts | 161° |
| 2026-05-04 14:32 | 50.04983 | 8.58920 | 361 ft | 4 kts | 224° |
| 2026-05-04 14:32 | 50.04996 | 8.58952 | 362 ft | 4 kts | 250° |
| 2026-05-04 14:33 | 50.05004 | 8.58986 | 366 ft | 1 kts | 250° |
| 2026-05-04 14:33 | 50.05004 | 8.58987 | 366 ft | 0 kts | 250° |
| 2026-05-04 14:33 | 50.05004 | 8.58986 | 366 ft | 0 kts | 250° |
| 2026-05-04 14:36 | 50.04998 | 8.58962 | 361 ft | 5 kts | 250° |
| 2026-05-04 14:36 | 50.04982 | 8.58893 | 360 ft | 9 kts | 250° |
| 2026-05-04 14:36 | 50.04955 | 8.58780 | 361 ft | 13 kts | 250° |
| 2026-05-04 14:37 | 50.04919 | 8.58626 | 360 ft | 17 kts | 250° |
| 2026-05-04 14:37 | 50.04879 | 8.58463 | 361 ft | 16 kts | 249° |
| 2026-05-04 14:37 | 50.04836 | 8.58282 | 362 ft | 19 kts | 250° |
| 2026-05-04 14:37 | 50.04789 | 8.58084 | 359 ft | 21 kts | 250° |
| 2026-05-04 14:38 | 50.04738 | 8.57932 | 364 ft | 14 kts | 223° |
| 2026-05-04 14:38 | 50.04685 | 8.57801 | 363 ft | 15 kts | 250° |
| 2026-05-04 14:38 | 50.04645 | 8.57638 | 357 ft | 17 kts | 249° |
| 2026-05-04 14:38 | 50.04603 | 8.57459 | 359 ft | 19 kts | 250° |
| 2026-05-04 14:39 | 50.04557 | 8.57266 | 364 ft | 20 kts | 249° |
| 2026-05-04 14:39 | 50.04507 | 8.57058 | 362 ft | 21 kts | 250° |
| 2026-05-04 14:39 | 50.04455 | 8.56844 | 362 ft | 21 kts | 249° |
| 2026-05-04 14:40 | 50.04345 | 8.56383 | 360 ft | 24 kts | 249° |
| 2026-05-04 14:40 | 50.04284 | 8.56128 | 354 ft | 26 kts | 249° |
| 2026-05-04 14:40 | 50.04220 | 8.55862 | 360 ft | 27 kts | 251° |
| 2026-05-04 14:40 | 50.04235 | 8.55601 | 356 ft | 23 kts | 332° |
| 2026-05-04 14:41 | 50.04318 | 8.55665 | 360 ft | 7 kts | 103° |
| 2026-05-04 14:41 | 50.04238 | 8.55707 | 354 ft | 13 kts | 192° |
| 2026-05-04 14:41 | 50.04212 | 8.55695 | 362 ft | 0 kts | 199° |
| 2026-05-04 14:42 | 50.04197 | 8.55685 | 359 ft | 4 kts | 204° |
| 2026-05-04 14:42 | 50.04176 | 8.55655 | 355 ft | 5 kts | 229° |
| 2026-05-04 14:42 | 50.04150 | 8.55566 | 358 ft | 11 kts | 250° |
| 2026-05-04 14:43 | 50.04123 | 8.55451 | 358 ft | 12 kts | 249° |
| 2026-05-04 14:43 | 50.04093 | 8.55328 | 360 ft | 12 kts | 249° |
| 2026-05-04 14:43 | 50.04064 | 8.55207 | 358 ft | 12 kts | 250° |
| 2026-05-04 14:43 | 50.04034 | 8.55078 | 360 ft | 13 kts | 249° |
| 2026-05-04 14:44 | 50.04000 | 8.54937 | 358 ft | 15 kts | 250° |
| 2026-05-04 14:44 | 50.03961 | 8.54775 | 353 ft | 17 kts | 249° |
| 2026-05-04 14:44 | 50.03917 | 8.54590 | 350 ft | 19 kts | 250° |
| 2026-05-04 14:44 | 50.03866 | 8.54386 | 353 ft | 21 kts | 243° |
| 2026-05-04 14:45 | 50.03791 | 8.54188 | 351 ft | 21 kts | 250° |
| 2026-05-04 14:45 | 50.03744 | 8.53990 | 352 ft | 20 kts | 249° |
| 2026-05-04 14:45 | 50.03694 | 8.53779 | 342 ft | 21 kts | 250° |
| 2026-05-04 14:45 | 50.03639 | 8.53558 | 338 ft | 23 kts | 247° |
| 2026-05-04 14:46 | 50.03583 | 8.53324 | 336 ft | 24 kts | 249° |
| 2026-05-04 14:46 | 50.03525 | 8.53084 | 336 ft | 24 kts | 250° |
| 2026-05-04 14:46 | 50.03461 | 8.52833 | 334 ft | 25 kts | 246° |
| 2026-05-04 14:46 | 50.03411 | 8.52655 | 332 ft | 17 kts | 243° |
| 2026-05-04 14:47 | 50.03319 | 8.52594 | 333 ft | 8 kts | 179° |
| 2026-05-04 14:47 | 50.03317 | 8.52594 | 335 ft | 1 kts | 179° |
| 2026-05-04 14:47 | 50.03211 | 8.52595 | 335 ft | 45 kts | 180° |
| 2026-05-04 14:47 | 50.02667 | 8.52599 | 332 ft | 108 kts | 180° |
| 2026-05-04 14:48 | 50.01749 | 8.52608 | 334 ft | 155 kts | 180° |
| 2026-05-04 14:48 | 50.00577 | 8.52624 | 613 ft | 173 kts | 180° |
| 2026-05-04 14:48 | 49.99340 | 8.52618 | 1066 ft | 184 kts | 182° |
| 2026-05-04 14:48 | 49.98017 | 8.52651 | 1561 ft | 196 kts | 179° |
| 2026-05-04 14:49 | 49.96657 | 8.53235 | 1927 ft | 216 kts | 150° |
| 2026-05-04 14:49 | 49.95710 | 8.55085 | 2392 ft | 226 kts | 113° |
| 2026-05-04 14:49 | 49.95050 | 8.57396 | 2840 ft | 240 kts | 118° |
| 2026-05-04 14:49 | 49.94234 | 8.59745 | 3264 ft | 258 kts | 120° |
| 2026-05-04 14:50 | 49.93309 | 8.62249 | 3771 ft | 272 kts | 121° |
| 2026-05-04 14:50 | 49.92346 | 8.64816 | 4509 ft | 278 kts | 121° |
| 2026-05-04 14:50 | 49.91380 | 8.67408 | 5347 ft | 278 kts | 121° |
| 2026-05-04 14:50 | 49.90424 | 8.70005 | 6283 ft | 276 kts | 122° |
| 2026-05-04 14:51 | 49.89485 | 8.72583 | 7107 ft | 275 kts | 122° |
| 2026-05-04 14:51 | 49.88543 | 8.75189 | 7861 ft | 277 kts | 122° |
| 2026-05-04 14:51 | 49.87596 | 8.77807 | 8612 ft | 280 kts | 122° |
| 2026-05-04 14:51 | 49.86641 | 8.80450 | 9390 ft | 282 kts | 123° |
| 2026-05-04 14:52 | 49.85678 | 8.83116 | 10116 ft | 285 kts | 123° |
| 2026-05-04 14:52 | 49.84670 | 8.85891 | 10308 ft | 307 kts | 123° |
| 2026-05-04 14:52 | 49.83580 | 8.88876 | 10441 ft | 330 kts | 123° |
| 2026-05-04 14:52 | 49.82412 | 8.92071 | 10562 ft | 351 kts | 123° |
| 2026-05-04 14:53 | 49.81193 | 8.95421 | 10912 ft | 362 kts | 122° |
| 2026-05-04 14:53 | 49.79953 | 8.98842 | 11490 ft | 367 kts | 122° |
| 2026-05-04 14:53 | 49.78701 | 9.02306 | 12074 ft | 371 kts | 122° |
| 2026-05-04 14:53 | 49.77450 | 9.05762 | 12662 ft | 375 kts | 122° |
| 2026-05-04 14:54 | 49.75964 | 9.09123 | 13236 ft | 375 kts | 135° |
| 2026-05-04 14:54 | 49.74114 | 9.11905 | 13787 ft | 377 kts | 139° |
| 2026-05-04 14:54 | 49.72198 | 9.14700 | 14275 ft | 381 kts | 139° |
| 2026-05-04 14:54 | 49.70233 | 9.17548 | 14777 ft | 384 kts | 139° |
| 2026-05-04 14:55 | 49.68304 | 9.20340 | 15267 ft | 387 kts | 139° |
| 2026-05-04 14:55 | 49.66326 | 9.23206 | 15761 ft | 391 kts | 139° |
| 2026-05-04 14:55 | 49.64337 | 9.26091 | 16246 ft | 394 kts | 139° |